sensor_id;sensor_type;location;lat;lon;timestamp;pressure;altitude;pressure_sealevel;temperature;humidity
68077;BME280;54866;53.458;14.540;2023-03-14T00:01:26;98244.78;;;10.72;99.64
68077;BME280;54866;53.458;14.540;2023-03-14T00:03:56;98249.45;;;10.71;99.80
68077;BME280;54866;53.458;14.540;2023-03-14T00:06:25;98252.96;;;10.70;99.76
68077;BME280;54866;53.458;14.540;2023-03-14T00:08:55;98242.70;;;10.68;99.89
68077;BME280;54866;53.458;14.540;2023-03-14T00:11:25;98240.17;;;10.65;100.00
68077;BME280;54866;53.458;14.540;2023-03-14T00:13:55;98243.16;;;10.64;100.00
68077;BME280;54866;53.458;14.540;2023-03-14T00:16:24;98235.78;;;10.62;100.00
68077;BME280;54866;53.458;14.540;2023-03-14T00:18:54;98238.27;;;10.60;100.00
68077;BME280;54866;53.458;14.540;2023-03-14T00:21:23;98248.65;;;10.59;100.00
68077;BME280;54866;53.458;14.540;2023-03-14T00:23:53;98246.33;;;10.56;100.00
68077;BME280;54866;53.458;14.540;2023-03-14T00:26:23;98248.70;;;10.52;100.00
68077;BME280;54866;53.458;14.540;2023-03-14T00:28:54;98238.29;;;10.51;100.00
68077;BME280;54866;53.458;14.540;2023-03-14T00:31:24;98234.66;;;10.47;100.00
68077;BME280;54866;53.458;14.540;2023-03-14T00:33:54;98231.70;;;10.44;100.00
68077;BME280;54866;53.458;14.540;2023-03-14T00:36:24;98229.48;;;10.41;100.00
68077;BME280;54866;53.458;14.540;2023-03-14T00:38:54;98221.37;;;10.38;100.00
68077;BME280;54866;53.458;14.540;2023-03-14T00:41:24;98208.61;;;10.34;100.00
68077;BME280;54866;53.458;14.540;2023-03-14T00:43:54;98203.64;;;10.30;100.00
68077;BME280;54866;53.458;14.540;2023-03-14T00:46:23;98200.81;;;10.25;100.00
68077;BME280;54866;53.458;14.540;2023-03-14T00:48:53;98193.59;;;10.22;100.00
68077;BME280;54866;53.458;14.540;2023-03-14T00:51:22;98187.59;;;10.19;100.00
68077;BME280;54866;53.458;14.540;2023-03-14T00:53:52;98184.04;;;10.15;100.00
68077;BME280;54866;53.458;14.540;2023-03-14T00:56:21;98179.11;;;10.12;100.00
68077;BME280;54866;53.458;14.540;2023-03-14T00:58:54;98173.59;;;10.10;100.00
68077;BME280;54866;53.458;14.540;2023-03-14T01:01:25;98187.64;;;10.07;100.00
68077;BME280;54866;53.458;14.540;2023-03-14T01:03:55;98192.30;;;10.03;100.00
68077;BME280;54866;53.458;14.540;2023-03-14T01:06:27;98197.23;;;9.98;100.00
68077;BME280;54866;53.458;14.540;2023-03-14T01:08:57;98183.58;;;9.95;100.00
68077;BME280;54866;53.458;14.540;2023-03-14T01:11:28;98173.79;;;9.90;100.00
68077;BME280;54866;53.458;14.540;2023-03-14T01:13:59;98173.40;;;9.83;100.00
68077;BME280;54866;53.458;14.540;2023-03-14T01:16:31;98185.16;;;9.78;100.00
68077;BME280;54866;53.458;14.540;2023-03-14T01:19:00;98196.04;;;9.74;100.00
68077;BME280;54866;53.458;14.540;2023-03-14T01:21:32;98181.05;;;9.71;100.00
68077;BME280;54866;53.458;14.540;2023-03-14T01:24:03;98173.08;;;9.68;100.00
68077;BME280;54866;53.458;14.540;2023-03-14T01:26:34;98163.12;;;9.65;100.00
68077;BME280;54866;53.458;14.540;2023-03-14T01:29:04;98162.73;;;9.64;100.00
68077;BME280;54866;53.458;14.540;2023-03-14T01:31:34;98176.89;;;9.63;100.00
68077;BME280;54866;53.458;14.540;2023-03-14T01:34:04;98160.96;;;9.62;100.00
68077;BME280;54866;53.458;14.540;2023-03-14T01:36:34;98150.86;;;9.62;100.00
68077;BME280;54866;53.458;14.540;2023-03-14T01:39:04;98138.87;;;9.60;100.00
68077;BME280;54866;53.458;14.540;2023-03-14T01:41:35;98128.15;;;9.60;100.00
68077;BME280;54866;53.458;14.540;2023-03-14T01:44:05;98131.66;;;9.62;100.00
68077;BME280;54866;53.458;14.540;2023-03-14T01:46:38;98140.29;;;9.63;100.00
68077;BME280;54866;53.458;14.540;2023-03-14T01:49:18;98140.75;;;9.67;100.00
68077;BME280;54866;53.458;14.540;2023-03-14T01:51:54;98142.83;;;9.67;100.00
68077;BME280;54866;53.458;14.540;2023-03-14T01:54:29;98155.61;;;9.67;100.00
68077;BME280;54866;53.458;14.540;2023-03-14T01:57:06;98169.04;;;9.67;100.00
68077;BME280;54866;53.458;14.540;2023-03-14T01:59:38;98178.95;;;9.68;100.00
68077;BME280;54866;53.458;14.540;2023-03-14T02:02:12;98176.17;;;9.69;100.00
68077;BME280;54866;53.458;14.540;2023-03-14T02:04:43;98185.36;;;9.70;100.00
68077;BME280;54866;53.458;14.540;2023-03-14T02:07:15;98186.13;;;9.73;100.00
68077;BME280;54866;53.458;14.540;2023-03-14T02:09:45;98181.16;;;9.75;100.00
68077;BME280;54866;53.458;14.540;2023-03-14T02:12:16;98198.81;;;9.77;100.00
68077;BME280;54866;53.458;14.540;2023-03-14T02:14:47;98203.94;;;9.83;100.00
68077;BME280;54866;53.458;14.540;2023-03-14T02:17:18;98208.83;;;9.86;100.00
68077;BME280;54866;53.458;14.540;2023-03-14T02:20:01;98215.05;;;9.91;100.00
68077;BME280;54866;53.458;14.540;2023-03-14T02:22:34;98215.91;;;9.94;99.96
68077;BME280;54866;53.458;14.540;2023-03-14T02:25:10;98210.97;;;9.97;99.74
68077;BME280;54866;53.458;14.540;2023-03-14T02:27:42;98212.05;;;9.98;99.32
68077;BME280;54866;53.458;14.540;2023-03-14T02:30:15;98219.58;;;10.00;99.12
68077;BME280;54866;53.458;14.540;2023-03-14T02:32:49;98210.95;;;10.03;98.79
68077;BME280;54866;53.458;14.540;2023-03-14T02:35:23;98200.00;;;10.02;98.71
68077;BME280;54866;53.458;14.540;2023-03-14T02:37:56;98206.59;;;10.00;98.69
68077;BME280;54866;53.458;14.540;2023-03-14T02:40:28;98211.31;;;9.98;98.63
68077;BME280;54866;53.458;14.540;2023-03-14T02:42:58;98202.48;;;9.97;98.66
68077;BME280;54866;53.458;14.540;2023-03-14T02:45:38;98201.91;;;9.96;98.48
68077;BME280;54866;53.458;14.540;2023-03-14T02:48:12;98202.16;;;9.94;98.30
68077;BME280;54866;53.458;14.540;2023-03-14T02:50:44;98201.70;;;9.93;98.22
68077;BME280;54866;53.458;14.540;2023-03-14T02:53:19;98179.28;;;9.95;98.01
68077;BME280;54866;53.458;14.540;2023-03-14T02:55:50;98177.97;;;9.92;98.06
68077;BME280;54866;53.458;14.540;2023-03-14T02:58:20;98174.11;;;9.88;98.08
68077;BME280;54866;53.458;14.540;2023-03-14T03:00:50;98169.98;;;9.85;98.25
68077;BME280;54866;53.458;14.540;2023-03-14T03:03:20;98164.80;;;9.82;98.30
68077;BME280;54866;53.458;14.540;2023-03-14T03:05:51;98163.13;;;9.82;98.21
68077;BME280;54866;53.458;14.540;2023-03-14T03:08:22;98162.04;;;9.79;98.31
68077;BME280;54866;53.458;14.540;2023-03-14T03:10:52;98149.71;;;9.78;98.19
68077;BME280;54866;53.458;14.540;2023-03-14T03:13:22;98153.84;;;9.74;98.33
68077;BME280;54866;53.458;14.540;2023-03-14T03:15:51;98147.52;;;9.69;98.43
68077;BME280;54866;53.458;14.540;2023-03-14T03:18:21;98144.13;;;9.65;98.72
68077;BME280;54866;53.458;14.540;2023-03-14T03:20:51;98139.55;;;9.60;98.94
68077;BME280;54866;53.458;14.540;2023-03-14T03:23:20;98128.42;;;9.56;99.20
68077;BME280;54866;53.458;14.540;2023-03-14T03:25:51;98116.89;;;9.53;99.29
68077;BME280;54866;53.458;14.540;2023-03-14T03:28:21;98116.69;;;9.50;99.46
68077;BME280;54866;53.458;14.540;2023-03-14T03:30:50;98112.58;;;9.49;99.56
68077;BME280;54866;53.458;14.540;2023-03-14T03:33:20;98106.08;;;9.46;99.76
68077;BME280;54866;53.458;14.540;2023-03-14T03:35:51;98104.58;;;9.44;99.92
68077;BME280;54866;53.458;14.540;2023-03-14T03:38:21;98111.67;;;9.42;99.95
68077;BME280;54866;53.458;14.540;2023-03-14T03:40:51;98098.05;;;9.41;100.00
68077;BME280;54866;53.458;14.540;2023-03-14T03:43:20;98088.94;;;9.38;99.99
68077;BME280;54866;53.458;14.540;2023-03-14T03:45:50;98084.95;;;9.35;100.00
68077;BME280;54866;53.458;14.540;2023-03-14T03:48:20;98080.42;;;9.33;100.00
68077;BME280;54866;53.458;14.540;2023-03-14T03:50:49;98087.77;;;9.32;100.00
68077;BME280;54866;53.458;14.540;2023-03-14T03:53:19;98083.20;;;9.32;100.00
68077;BME280;54866;53.458;14.540;2023-03-14T03:55:48;98076.27;;;9.33;100.00
68077;BME280;54866;53.458;14.540;2023-03-14T03:58:18;98085.17;;;9.32;100.00
68077;BME280;54866;53.458;14.540;2023-03-14T04:00:48;98085.15;;;9.32;100.00
68077;BME280;54866;53.458;14.540;2023-03-14T04:03:17;98084.15;;;9.33;100.00
68077;BME280;54866;53.458;14.540;2023-03-14T04:05:57;98087.59;;;9.31;100.00
68077;BME280;54866;53.458;14.540;2023-03-14T04:08:26;98085.52;;;9.30;100.00
68077;BME280;54866;53.458;14.540;2023-03-14T04:10:57;98090.73;;;9.31;100.00
68077;BME280;54866;53.458;14.540;2023-03-14T04:13:28;98089.91;;;9.29;100.00
68077;BME280;54866;53.458;14.540;2023-03-14T04:15:58;98085.55;;;9.30;100.00
68077;BME280;54866;53.458;14.540;2023-03-14T04:18:28;98086.27;;;9.29;100.00
68077;BME280;54866;53.458;14.540;2023-03-14T04:20:59;98100.36;;;9.28;100.00
68077;BME280;54866;53.458;14.540;2023-03-14T04:23:29;98106.83;;;9.27;100.00
68077;BME280;54866;53.458;14.540;2023-03-14T04:25:58;98104.92;;;9.27;100.00
68077;BME280;54866;53.458;14.540;2023-03-14T04:28:28;98107.14;;;9.24;100.00
68077;BME280;54866;53.458;14.540;2023-03-14T04:30:57;98108.55;;;9.26;100.00
68077;BME280;54866;53.458;14.540;2023-03-14T04:33:27;98107.37;;;9.26;100.00
68077;BME280;54866;53.458;14.540;2023-03-14T04:35:57;98097.98;;;9.26;100.00
68077;BME280;54866;53.458;14.540;2023-03-14T04:38:26;98102.61;;;9.27;100.00
68077;BME280;54866;53.458;14.540;2023-03-14T04:40:56;98103.94;;;9.26;100.00
68077;BME280;54866;53.458;14.540;2023-03-14T04:43:26;98105.45;;;9.27;100.00
68077;BME280;54866;53.458;14.540;2023-03-14T04:45:57;98112.27;;;9.30;100.00
68077;BME280;54866;53.458;14.540;2023-03-14T04:48:27;98107.86;;;9.30;100.00
68077;BME280;54866;53.458;14.540;2023-03-14T04:50:57;98099.57;;;9.29;100.00
68077;BME280;54866;53.458;14.540;2023-03-14T04:53:26;98092.63;;;9.28;100.00
68077;BME280;54866;53.458;14.540;2023-03-14T04:55:56;98090.89;;;9.27;100.00
68077;BME280;54866;53.458;14.540;2023-03-14T04:58:26;98090.96;;;9.26;100.00
68077;BME280;54866;53.458;14.540;2023-03-14T05:00:56;98085.52;;;9.28;100.00
68077;BME280;54866;53.458;14.540;2023-03-14T05:03:30;98089.11;;;9.27;100.00
68077;BME280;54866;53.458;14.540;2023-03-14T05:06:00;98082.60;;;9.25;100.00
68077;BME280;54866;53.458;14.540;2023-03-14T05:08:30;98076.49;;;9.24;100.00
68077;BME280;54866;53.458;14.540;2023-03-14T05:10:59;98066.20;;;9.21;100.00
68077;BME280;54866;53.458;14.540;2023-03-14T05:13:29;98065.34;;;9.20;100.00
68077;BME280;54866;53.458;14.540;2023-03-14T05:16:07;98065.20;;;9.18;100.00
68077;BME280;54866;53.458;14.540;2023-03-14T05:18:37;98058.98;;;9.16;100.00
68077;BME280;54866;53.458;14.540;2023-03-14T05:21:07;98051.24;;;9.14;100.00
68077;BME280;54866;53.458;14.540;2023-03-14T05:23:37;98053.12;;;9.14;100.00
68077;BME280;54866;53.458;14.540;2023-03-14T05:26:07;98045.52;;;9.13;100.00
68077;BME280;54866;53.458;14.540;2023-03-14T05:28:36;98044.29;;;9.15;100.00
68077;BME280;54866;53.458;14.540;2023-03-14T05:31:09;98034.27;;;9.16;100.00
68077;BME280;54866;53.458;14.540;2023-03-14T05:33:39;98036.91;;;9.15;100.00
68077;BME280;54866;53.458;14.540;2023-03-14T05:36:10;98037.98;;;9.13;100.00
68077;BME280;54866;53.458;14.540;2023-03-14T05:38:39;98042.36;;;9.13;100.00
68077;BME280;54866;53.458;14.540;2023-03-14T05:41:09;98036.60;;;9.13;100.00
68077;BME280;54866;53.458;14.540;2023-03-14T05:43:39;98023.80;;;9.11;100.00
68077;BME280;54866;53.458;14.540;2023-03-14T05:46:08;98025.02;;;9.12;100.00
68077;BME280;54866;53.458;14.540;2023-03-14T05:48:39;98025.72;;;9.14;100.00
68077;BME280;54866;53.458;14.540;2023-03-14T05:51:09;98013.73;;;9.15;100.00
68077;BME280;54866;53.458;14.540;2023-03-14T05:53:38;97998.62;;;9.13;100.00
68077;BME280;54866;53.458;14.540;2023-03-14T05:56:09;97997.90;;;9.12;100.00
68077;BME280;54866;53.458;14.540;2023-03-14T05:58:39;97994.25;;;9.12;100.00
68077;BME280;54866;53.458;14.540;2023-03-14T06:01:09;97991.85;;;9.11;100.00
68077;BME280;54866;53.458;14.540;2023-03-14T06:03:38;97997.73;;;9.11;100.00
68077;BME280;54866;53.458;14.540;2023-03-14T06:06:09;98009.52;;;9.10;100.00
68077;BME280;54866;53.458;14.540;2023-03-14T06:08:38;98010.88;;;9.09;100.00
68077;BME280;54866;53.458;14.540;2023-03-14T06:11:08;98009.50;;;9.09;100.00
68077;BME280;54866;53.458;14.540;2023-03-14T06:13:38;98010.26;;;9.09;100.00
68077;BME280;54866;53.458;14.540;2023-03-14T06:16:09;98003.98;;;9.10;99.99
68077;BME280;54866;53.458;14.540;2023-03-14T06:18:38;98005.61;;;9.09;99.96
68077;BME280;54866;53.458;14.540;2023-03-14T06:21:09;97998.23;;;9.09;99.83
68077;BME280;54866;53.458;14.540;2023-03-14T06:23:38;97998.39;;;9.09;99.86
68077;BME280;54866;53.458;14.540;2023-03-14T06:26:08;98005.77;;;9.09;99.77
68077;BME280;54866;53.458;14.540;2023-03-14T06:28:39;98010.53;;;9.11;99.65
68077;BME280;54866;53.458;14.540;2023-03-14T06:31:09;98016.36;;;9.10;99.56
68077;BME280;54866;53.458;14.540;2023-03-14T06:33:38;98018.40;;;9.11;99.52
68077;BME280;54866;53.458;14.540;2023-03-14T06:36:09;98018.46;;;9.12;99.51
68077;BME280;54866;53.458;14.540;2023-03-14T06:38:39;98026.45;;;9.14;99.26
68077;BME280;54866;53.458;14.540;2023-03-14T06:41:09;98028.87;;;9.16;99.11
68077;BME280;54866;53.458;14.540;2023-03-14T06:43:39;98039.02;;;9.18;99.14
68077;BME280;54866;53.458;14.540;2023-03-14T06:46:08;98031.19;;;9.19;98.87
68077;BME280;54866;53.458;14.540;2023-03-14T06:48:38;98034.52;;;9.23;98.65
68077;BME280;54866;53.458;14.540;2023-03-14T06:51:09;98036.78;;;9.25;98.23
68077;BME280;54866;53.458;14.540;2023-03-14T06:53:39;98036.73;;;9.30;97.92
68077;BME280;54866;53.458;14.540;2023-03-14T06:56:10;98041.16;;;9.33;97.77
68077;BME280;54866;53.458;14.540;2023-03-14T06:58:39;98040.86;;;9.39;97.43
68077;BME280;54866;53.458;14.540;2023-03-14T07:01:20;98036.40;;;9.44;97.26
68077;BME280;54866;53.458;14.540;2023-03-14T07:03:50;98036.71;;;9.53;96.75
68077;BME280;54866;53.458;14.540;2023-03-14T07:06:20;98039.00;;;9.66;96.18
68077;BME280;54866;53.458;14.540;2023-03-14T07:08:50;98031.80;;;9.73;95.50
68077;BME280;54866;53.458;14.540;2023-03-14T07:11:19;98035.81;;;9.74;95.36
68077;BME280;54866;53.458;14.540;2023-03-14T07:13:49;98038.05;;;9.75;95.10
68077;BME280;54866;53.458;14.540;2023-03-14T07:16:18;98039.36;;;9.76;94.95
68077;BME280;54866;53.458;14.540;2023-03-14T07:18:48;98033.65;;;9.76;94.74
68077;BME280;54866;53.458;14.540;2023-03-14T07:21:18;98042.87;;;9.77;94.30
68077;BME280;54866;53.458;14.540;2023-03-14T07:23:48;98040.77;;;9.78;94.01
68077;BME280;54866;53.458;14.540;2023-03-14T07:26:17;98041.61;;;9.80;94.04
68077;BME280;54866;53.458;14.540;2023-03-14T07:28:47;98037.96;;;9.83;93.58
68077;BME280;54866;53.458;14.540;2023-03-14T07:31:16;98041.08;;;9.88;93.03
68077;BME280;54866;53.458;14.540;2023-03-14T07:33:46;98039.91;;;9.89;92.66
68077;BME280;54866;53.458;14.540;2023-03-14T07:36:16;98044.02;;;9.90;92.56
68077;BME280;54866;53.458;14.540;2023-03-14T07:38:46;98038.98;;;9.90;92.73
68077;BME280;54866;53.458;14.540;2023-03-14T07:41:15;98045.33;;;9.92;92.12
68077;BME280;54866;53.458;14.540;2023-03-14T07:43:45;98046.40;;;9.96;91.47
68077;BME280;54866;53.458;14.540;2023-03-14T07:46:15;98042.98;;;10.02;91.53
68077;BME280;54866;53.458;14.540;2023-03-14T07:48:45;98054.02;;;10.05;91.04
68077;BME280;54866;53.458;14.540;2023-03-14T07:51:15;98055.81;;;10.12;90.78
68077;BME280;54866;53.458;14.540;2023-03-14T07:53:44;98059.27;;;10.23;90.20
68077;BME280;54866;53.458;14.540;2023-03-14T07:56:14;98064.89;;;10.29;89.58
68077;BME280;54866;53.458;14.540;2023-03-14T07:58:43;98065.11;;;10.30;88.81
68077;BME280;54866;53.458;14.540;2023-03-14T08:01:13;98063.90;;;10.29;88.53
68077;BME280;54866;53.458;14.540;2023-03-14T08:03:43;98069.27;;;10.32;88.35
68077;BME280;54866;53.458;14.540;2023-03-14T08:06:12;98070.14;;;10.39;87.84
68077;BME280;54866;53.458;14.540;2023-03-14T08:08:42;98069.68;;;10.51;87.74
68077;BME280;54866;53.458;14.540;2023-03-14T08:11:11;98077.66;;;10.65;86.59
68077;BME280;54866;53.458;14.540;2023-03-14T08:13:41;98068.63;;;10.94;84.69
68077;BME280;54866;53.458;14.540;2023-03-14T08:16:17;98064.50;;;11.31;82.83
68077;BME280;54866;53.458;14.540;2023-03-14T08:18:47;98066.29;;;11.50;81.63
68077;BME280;54866;53.458;14.540;2023-03-14T08:21:17;98058.84;;;11.90;80.21
68077;BME280;54866;53.458;14.540;2023-03-14T08:23:46;98054.59;;;13.09;76.18
68077;BME280;54866;53.458;14.540;2023-03-14T08:26:16;98053.95;;;13.43;73.73
68077;BME280;54866;53.458;14.540;2023-03-14T08:28:46;98045.92;;;13.85;71.61
68077;BME280;54866;53.458;14.540;2023-03-14T08:31:15;98050.48;;;14.14;68.80
68077;BME280;54866;53.458;14.540;2023-03-14T08:33:45;98064.38;;;14.42;67.21
68077;BME280;54866;53.458;14.540;2023-03-14T08:36:14;98045.15;;;14.67;65.71
68077;BME280;54866;53.458;14.540;2023-03-14T08:38:44;98040.42;;;16.01;61.66
68077;BME280;54866;53.458;14.540;2023-03-14T08:41:13;98035.00;;;17.47;57.23
68077;BME280;54866;53.458;14.540;2023-03-14T08:43:43;98025.30;;;18.29;52.78
68077;BME280;54866;53.458;14.540;2023-03-14T08:46:12;98031.85;;;19.34;50.73
68077;BME280;54866;53.458;14.540;2023-03-14T08:48:42;98022.73;;;20.46;48.07
68077;BME280;54866;53.458;14.540;2023-03-14T08:51:13;98028.89;;;21.42;44.21
68077;BME280;54866;53.458;14.540;2023-03-14T08:53:43;98028.10;;;22.17;42.11
68077;BME280;54866;53.458;14.540;2023-03-14T08:56:13;98029.31;;;22.69;39.97
68077;BME280;54866;53.458;14.540;2023-03-14T08:58:42;98019.44;;;22.85;38.64
68077;BME280;54866;53.458;14.540;2023-03-14T09:01:12;98014.32;;;23.28;38.60
68077;BME280;54866;53.458;14.540;2023-03-14T09:03:41;98015.06;;;23.60;36.91
68077;BME280;54866;53.458;14.540;2023-03-14T09:06:12;98006.02;;;23.57;36.39
68077;BME280;54866;53.458;14.540;2023-03-14T09:08:41;98002.93;;;23.79;36.42
68077;BME280;54866;53.458;14.540;2023-03-14T09:11:11;98001.83;;;22.95;36.70
68077;BME280;54866;53.458;14.540;2023-03-14T09:13:41;97999.30;;;22.80;36.53
68077;BME280;54866;53.458;14.540;2023-03-14T09:16:11;98006.88;;;22.18;36.97
68077;BME280;54866;53.458;14.540;2023-03-14T09:18:40;98005.41;;;21.83;37.32
68077;BME280;54866;53.458;14.540;2023-03-14T09:21:10;97974.32;;;21.57;37.15
68077;BME280;54866;53.458;14.540;2023-03-14T09:23:40;98006.20;;;21.06;38.06
68077;BME280;54866;53.458;14.540;2023-03-14T09:26:09;98001.75;;;20.62;38.85
68077;BME280;54866;53.458;14.540;2023-03-14T09:28:39;98013.73;;;19.28;41.47
68077;BME280;54866;53.458;14.540;2023-03-14T09:31:10;98006.96;;;18.08;43.98
68077;BME280;54866;53.458;14.540;2023-03-14T09:33:40;98003.69;;;17.91;45.42
68077;BME280;54866;53.458;14.540;2023-03-14T09:36:11;98006.65;;;18.88;43.07
68077;BME280;54866;53.458;14.540;2023-03-14T09:38:40;98004.11;;;18.02;44.22
68077;BME280;54866;53.458;14.540;2023-03-14T09:41:20;97997.05;;;18.81;42.31
68077;BME280;54866;53.458;14.540;2023-03-14T09:43:54;97988.44;;;19.70;40.40
68077;BME280;54866;53.458;14.540;2023-03-14T09:46:28;98000.05;;;19.65;39.96
68077;BME280;54866;53.458;14.540;2023-03-14T09:48:58;97984.70;;;19.81;40.12
68077;BME280;54866;53.458;14.540;2023-03-14T09:51:29;97992.66;;;20.17;39.27
68077;BME280;54866;53.458;14.540;2023-03-14T09:53:59;97994.85;;;20.59;38.79
68077;BME280;54866;53.458;14.540;2023-03-14T09:56:31;97993.95;;;20.05;38.84
68077;BME280;54866;53.458;14.540;2023-03-14T09:59:03;97990.96;;;20.11;38.77
68077;BME280;54866;53.458;14.540;2023-03-14T10:01:38;97983.14;;;19.74;39.43
68077;BME280;54866;53.458;14.540;2023-03-14T10:04:12;97973.55;;;19.01;39.77
68077;BME280;54866;53.458;14.540;2023-03-14T10:06:44;97989.36;;;18.64;40.74
68077;BME280;54866;53.458;14.540;2023-03-14T10:09:19;98001.33;;;17.80;42.45
68077;BME280;54866;53.458;14.540;2023-03-14T10:11:56;97993.03;;;17.30;43.90
68077;BME280;54866;53.458;14.540;2023-03-14T10:14:35;97998.45;;;17.27;44.97
68077;BME280;54866;53.458;14.540;2023-03-14T10:17:11;97992.21;;;17.77;44.29
68077;BME280;54866;53.458;14.540;2023-03-14T10:19:52;97976.81;;;18.66;42.38
68077;BME280;54866;53.458;14.540;2023-03-14T10:22:23;97975.44;;;19.23;40.35
68077;BME280;54866;53.458;14.540;2023-03-14T10:24:55;98000.61;;;19.43;40.11
68077;BME280;54866;53.458;14.540;2023-03-14T10:27:31;97992.26;;;20.00;39.70
68077;BME280;54866;53.458;14.540;2023-03-14T10:30:04;97994.68;;;20.39;37.97
68077;BME280;54866;53.458;14.540;2023-03-14T10:32:36;97997.11;;;20.77;37.22
68077;BME280;54866;53.458;14.540;2023-03-14T10:35:17;97998.84;;;21.19;35.72
68077;BME280;54866;53.458;14.540;2023-03-14T10:37:53;98005.70;;;21.55;34.79
68077;BME280;54866;53.458;14.540;2023-03-14T10:40:27;98016.02;;;21.39;34.49
68077;BME280;54866;53.458;14.540;2023-03-14T10:42:59;98009.64;;;20.71;35.09
68077;BME280;54866;53.458;14.540;2023-03-14T10:45:38;98006.52;;;20.36;35.46
68077;BME280;54866;53.458;14.540;2023-03-14T10:48:21;98011.27;;;19.02;37.80
68077;BME280;54866;53.458;14.540;2023-03-14T10:50:55;98019.43;;;17.52;40.92
68077;BME280;54866;53.458;14.540;2023-03-14T10:53:26;98020.09;;;16.42;43.42
68077;BME280;54866;53.458;14.540;2023-03-14T10:55:57;98014.02;;;15.84;45.76
68077;BME280;54866;53.458;14.540;2023-03-14T10:58:28;98020.61;;;15.21;48.15
68077;BME280;54866;53.458;14.540;2023-03-14T11:01:05;98022.13;;;14.69;50.13
68077;BME280;54866;53.458;14.540;2023-03-14T11:03:41;98034.68;;;14.35;51.55
68077;BME280;54866;53.458;14.540;2023-03-14T11:06:17;98033.15;;;14.07;52.70
68077;BME280;54866;53.458;14.540;2023-03-14T11:08:52;98037.42;;;13.90;53.68
68077;BME280;54866;53.458;14.540;2023-03-14T11:11:29;98047.02;;;13.70;53.90
68077;BME280;54866;53.458;14.540;2023-03-14T11:14:08;98045.40;;;13.56;54.15
68077;BME280;54866;53.458;14.540;2023-03-14T11:16:53;98040.05;;;13.52;54.89
68077;BME280;54866;53.458;14.540;2023-03-14T11:19:57;98044.20;;;13.53;54.90
68077;BME280;54866;53.458;14.540;2023-03-14T11:22:36;98060.95;;;13.53;55.40
68077;BME280;54866;53.458;14.540;2023-03-14T11:25:15;98042.98;;;13.55;55.15
68077;BME280;54866;53.458;14.540;2023-03-14T11:27:51;98052.77;;;13.72;55.20
68077;BME280;54866;53.458;14.540;2023-03-14T11:30:30;98048.02;;;13.80;55.04
68077;BME280;54866;53.458;14.540;2023-03-14T11:33:08;98053.79;;;13.75;55.34
68077;BME280;54866;53.458;14.540;2023-03-14T11:35:47;98047.02;;;13.66;55.71
68077;BME280;54866;53.458;14.540;2023-03-14T11:38:30;98074.62;;;13.47;56.09
68077;BME280;54866;53.458;14.540;2023-03-14T11:41:02;98058.67;;;13.32;56.28
68077;BME280;54866;53.458;14.540;2023-03-14T11:43:34;98050.10;;;13.17;56.77
68077;BME280;54866;53.458;14.540;2023-03-14T11:46:11;98053.02;;;13.06;57.61
68077;BME280;54866;53.458;14.540;2023-03-14T11:48:48;98062.27;;;12.94;58.18
68077;BME280;54866;53.458;14.540;2023-03-14T11:51:25;98067.38;;;12.85;58.67
68077;BME280;54866;53.458;14.540;2023-03-14T11:54:02;98061.57;;;12.84;59.04
68077;BME280;54866;53.458;14.540;2023-03-14T11:56:36;98063.39;;;12.82;59.52
68077;BME280;54866;53.458;14.540;2023-03-14T11:59:16;98071.02;;;12.82;59.97
68077;BME280;54866;53.458;14.540;2023-03-14T12:01:58;98071.59;;;12.83;59.94
68077;BME280;54866;53.458;14.540;2023-03-14T12:04:53;98069.55;;;12.82;60.02
68077;BME280;54866;53.458;14.540;2023-03-14T12:07:28;98060.05;;;12.82;60.42
68077;BME280;54866;53.458;14.540;2023-03-14T12:09:59;98061.88;;;12.81;60.72
68077;BME280;54866;53.458;14.540;2023-03-14T12:12:30;98065.42;;;12.81;61.21
68077;BME280;54866;53.458;14.540;2023-03-14T12:15:02;98067.21;;;12.77;61.85
68077;BME280;54866;53.458;14.540;2023-03-14T12:17:38;98078.98;;;12.75;62.73
68077;BME280;54866;53.458;14.540;2023-03-14T12:20:17;98062.05;;;12.62;63.09
68077;BME280;54866;53.458;14.540;2023-03-14T12:22:50;98057.80;;;12.60;63.63
68077;BME280;54866;53.458;14.540;2023-03-14T12:25:22;98057.92;;;12.57;63.08
68077;BME280;54866;53.458;14.540;2023-03-14T12:28:16;98056.58;;;12.62;63.15
68077;BME280;54866;53.458;14.540;2023-03-14T12:30:46;98055.11;;;12.61;63.24
68077;BME280;54866;53.458;14.540;2023-03-14T12:33:30;98054.27;;;12.65;62.98
68077;BME280;54866;53.458;14.540;2023-03-14T12:36:29;98044.77;;;12.65;62.83
68077;BME280;54866;53.458;14.540;2023-03-14T12:39:17;98041.77;;;12.78;62.72
68077;BME280;54866;53.458;14.540;2023-03-14T12:41:53;98039.50;;;13.08;62.20
68077;BME280;54866;53.458;14.540;2023-03-14T12:44:46;98044.99;;;13.23;61.35
68077;BME280;54866;53.458;14.540;2023-03-14T12:50:23;98040.18;;;13.16;60.95
68077;BME280;54866;53.458;14.540;2023-03-14T12:55:51;98041.51;;;12.92;62.43
68077;BME280;54866;53.458;14.540;2023-03-14T12:58:31;98042.39;;;12.87;62.54
68077;BME280;54866;53.458;14.540;2023-03-14T13:01:04;98044.30;;;12.77;63.44
68077;BME280;54866;53.458;14.540;2023-03-14T13:03:45;98052.95;;;12.63;63.85
68077;BME280;54866;53.458;14.540;2023-03-14T13:06:50;98046.40;;;12.45;65.38
68077;BME280;54866;53.458;14.540;2023-03-14T13:09:54;98062.19;;;12.13;68.67
68077;BME280;54866;53.458;14.540;2023-03-14T13:12:38;98040.52;;;12.08;70.12
68077;BME280;54866;53.458;14.540;2023-03-14T13:15:19;98040.75;;;12.15;70.12
68077;BME280;54866;53.458;14.540;2023-03-14T13:17:52;98021.23;;;12.23;70.17
68077;BME280;54866;53.458;14.540;2023-03-14T13:20:29;98033.63;;;12.25;70.47
68077;BME280;54866;53.458;14.540;2023-03-14T13:23:00;98040.46;;;12.24;70.42